createdAt,value
2018-10-12T00:00:50.748Z,63.36
2018-10-12T00:03:21.041Z,63.71
2018-10-12T00:05:51.426Z,63.06
2018-10-12T00:08:21.280Z,63.08
2018-10-12T00:10:51.534Z,62.67
2018-10-12T00:13:21.486Z,63.25
2018-10-12T00:15:51.369Z,62.77
2018-10-12T00:18:21.206Z,63.05
2018-10-12T00:20:51.504Z,62.75
2018-10-12T00:23:21.328Z,62.95
2018-10-12T00:25:51.511Z,62.43
2018-10-12T00:28:21.375Z,63.27
2018-10-12T00:30:51.197Z,63.03
2018-10-12T00:33:21.592Z,63.25
2018-10-12T00:35:51.350Z,63.50
2018-10-12T00:38:21.116Z,62.89
2018-10-12T00:40:50.997Z,63.11
2018-10-12T00:43:20.776Z,63.28
2018-10-12T00:45:51.436Z,63.78
2018-10-12T00:48:21.200Z,63.49
2018-10-12T00:50:50.942Z,63.82
2018-10-12T00:53:20.669Z,63.74
2018-10-12T00:55:50.358Z,63.38
2018-10-12T00:58:20.054Z,62.98
2018-10-12T01:00:49.941Z,63.43
2018-10-12T01:03:20.166Z,64.04
2018-10-12T01:05:49.999Z,64.45
2018-10-12T01:08:19.728Z,63.64
2018-10-12T01:10:49.490Z,64.02
2018-10-12T01:13:20.035Z,64.53
2018-10-12T01:15:49.795Z,63.85
2018-10-12T01:18:19.544Z,64.96
2018-10-12T01:20:49.654Z,64.67
2018-10-12T01:23:19.509Z,65.17
2018-10-12T01:25:49.527Z,64.60
2018-10-12T01:28:19.507Z,64.92
2018-10-12T01:30:49.320Z,64.48
2018-10-12T01:33:19.177Z,63.76
2018-10-12T01:35:48.960Z,64.11
2018-10-12T01:38:18.764Z,63.90
2018-10-12T01:40:48.576Z,65.05
2018-10-12T01:43:18.845Z,64.73
2018-10-12T01:45:49.175Z,64.75
2018-10-12T01:48:19.290Z,65.44
2018-10-12T01:50:50.398Z,65.79
2018-10-12T01:53:20.262Z,65.74
2018-10-12T01:55:50.108Z,65.70
2018-10-12T01:58:19.995Z,65.72
2018-10-12T02:00:49.753Z,65.46
2018-10-12T02:03:19.744Z,65.34
2018-10-12T02:05:49.632Z,66.71
2018-10-12T02:08:19.866Z,66.95
2018-10-12T02:10:49.686Z,66.80
2018-10-12T02:13:20.241Z,67.37
2018-10-12T02:15:50.170Z,68.26
2018-10-12T02:18:20.116Z,68.56
2018-10-12T02:20:50.368Z,68.91
2018-10-12T02:23:20.188Z,70.46
2018-10-12T02:25:50.373Z,68.65
2018-10-12T02:28:20.190Z,68.39
2018-10-12T02:30:49.900Z,68.42
2018-10-12T02:33:19.722Z,68.76
2018-10-12T02:35:49.555Z,68.04
2018-10-12T02:38:19.307Z,68.13
2018-10-12T02:40:49.041Z,68.17
2018-10-12T02:43:18.828Z,67.80
2018-10-12T02:45:48.667Z,68.21
2018-10-12T02:48:18.526Z,68.00
2018-10-12T02:50:48.816Z,67.83
2018-10-12T02:53:18.599Z,68.30
2018-10-12T02:55:48.496Z,67.94
2018-10-12T02:58:18.348Z,68.40
2018-10-12T03:00:48.812Z,67.81
2018-10-12T03:03:18.604Z,67.23
2018-10-12T03:05:48.412Z,68.45
2018-10-12T03:08:18.231Z,68.43
2018-10-12T03:10:48.211Z,68.35
2018-10-12T03:13:18.057Z,67.58
2018-10-12T03:15:48.028Z,67.27
2018-10-12T03:18:17.856Z,68.24
2018-10-12T03:20:47.750Z,67.32
2018-10-12T03:23:17.567Z,67.43
2018-10-12T03:25:48.206Z,67.71
2018-10-12T03:28:27.453Z,67.78
2018-10-12T03:30:58.896Z,66.51
2018-10-12T03:33:29.687Z,66.75
2018-10-12T03:36:00.090Z,68.33
2018-10-12T03:38:30.042Z,67.81
2018-10-12T03:41:00.000Z,67.42
2018-10-12T03:43:29.912Z,67.62
2018-10-12T03:45:59.739Z,68.79
2018-10-12T03:48:29.671Z,68.85
2018-10-12T03:50:59.720Z,69.08
2018-10-12T03:53:29.660Z,68.23
2018-10-12T03:55:59.534Z,68.62
2018-10-12T03:58:29.541Z,69.89
2018-10-12T04:00:59.917Z,70.27
2018-10-12T04:03:29.762Z,69.72
2018-10-12T04:05:59.608Z,70.84
2018-10-12T04:08:29.536Z,70.33
2018-10-12T04:10:59.488Z,71.57
2018-10-12T04:13:29.338Z,71.54
2018-10-12T04:15:59.332Z,71.87
2018-10-12T04:18:29.638Z,70.97
2018-10-12T04:20:59.441Z,72.47
2018-10-12T04:23:29.775Z,72.42
2018-10-12T04:25:59.943Z,72.63
2018-10-12T04:28:30.150Z,70.91
2018-10-12T04:31:00.008Z,70.72
2018-10-12T04:33:29.920Z,71.07
2018-10-12T04:35:59.950Z,70.25
2018-10-12T04:38:45.635Z,70.47
2018-10-12T04:41:18.736Z,72.02
2018-10-12T04:43:49.957Z,71.11
2018-10-12T04:46:24.822Z,70.47
2018-10-12T04:48:54.727Z,69.54
2018-10-12T04:51:39.573Z,70.62
2018-10-12T04:54:09.559Z,70.52
2018-10-12T04:56:45.914Z,70.57
2018-10-12T04:59:15.856Z,70.83
2018-10-12T05:01:45.798Z,70.77
2018-10-12T05:04:16.198Z,71.15
2018-10-12T05:06:46.066Z,71.82
2018-10-12T05:09:16.180Z,72.06
2018-10-12T05:11:46.307Z,72.58
2018-10-12T05:14:16.154Z,72.33
2018-10-12T05:16:45.952Z,74.09
2018-10-12T05:19:15.904Z,72.89
2018-10-12T05:21:46.480Z,73.63
2018-10-12T05:24:16.297Z,72.71
2018-10-12T05:26:51.681Z,71.94
2018-10-12T05:29:21.555Z,74.47
2018-10-12T05:31:51.260Z,73.75
2018-10-12T05:34:22.269Z,73.16
2018-10-12T05:36:52.178Z,71.83
2018-10-12T05:39:22.834Z,73.42
2018-10-12T05:41:53.225Z,73.12
2018-10-12T05:44:22.959Z,75.72
2018-10-12T05:46:52.757Z,75.44
2018-10-12T05:49:40.037Z,75.20
2018-10-12T05:52:09.886Z,72.97
2018-10-12T05:54:39.708Z,74.50
2018-10-12T05:57:09.745Z,72.67
2018-10-12T05:59:39.532Z,74.22
2018-10-12T06:02:09.348Z,73.44
2018-10-12T06:04:39.139Z,73.83
2018-10-12T06:07:09.252Z,73.04
2018-10-12T06:09:39.324Z,73.65
2018-10-12T06:12:09.185Z,74.47
2018-10-12T06:14:38.971Z,73.77
2018-10-12T06:17:09.075Z,73.75
2018-10-12T06:19:39.206Z,73.33
2018-10-12T06:22:09.594Z,73.38
2018-10-12T06:24:39.682Z,73.64
2018-10-12T06:27:09.486Z,73.81
2018-10-12T06:29:39.255Z,74.49
2018-10-12T06:32:09.472Z,74.08
2018-10-12T06:34:39.291Z,74.08
2018-10-12T06:37:09.351Z,74.25
2018-10-12T06:39:39.144Z,74.01
2018-10-12T06:42:08.923Z,73.45
2018-10-12T06:44:38.904Z,74.19
2018-10-12T06:47:08.684Z,73.54
2018-10-12T06:49:38.584Z,72.04
2018-10-12T06:52:12.157Z,73.81
2018-10-12T06:54:48.195Z,72.77
2018-10-12T06:57:18.274Z,73.06
2018-10-12T06:59:48.330Z,73.16
2018-10-12T07:02:23.024Z,73.82
2018-10-12T07:04:53.161Z,73.63
2018-10-12T07:07:23.129Z,74.39
2018-10-12T07:09:52.904Z,73.43
2018-10-12T07:12:22.648Z,74.53
2018-10-12T07:14:52.491Z,73.74
2018-10-12T07:17:22.621Z,73.81
2018-10-12T07:19:52.913Z,73.81
2018-10-12T07:22:22.730Z,74.70
2018-10-12T07:24:52.687Z,74.56
2018-10-12T07:27:22.929Z,75.26
2018-10-12T07:29:52.797Z,74.72
2018-10-12T07:32:22.992Z,74.40
2018-10-12T07:34:53.220Z,73.09
2018-10-12T07:37:23.129Z,73.38
2018-10-12T07:39:52.927Z,71.80
2018-10-12T07:42:22.816Z,72.11
2018-10-12T07:44:52.818Z,71.25
2018-10-12T07:47:22.837Z,71.64
2018-10-12T07:49:52.897Z,71.84
2018-10-12T07:52:22.827Z,71.65
2018-10-12T07:54:52.713Z,71.67
2018-10-12T07:57:26.647Z,70.52
2018-10-12T07:59:56.870Z,71.01
2018-10-12T08:02:27.268Z,70.44
2018-10-12T08:04:57.464Z,70.82
2018-10-12T08:07:27.536Z,70.53
2018-10-12T08:09:57.587Z,70.21
2018-10-12T08:12:28.116Z,69.89
2018-10-12T08:15:01.985Z,69.37
2018-10-12T08:17:31.839Z,69.34
2018-10-12T08:20:01.834Z,69.20
2018-10-12T08:22:31.859Z,70.25
2018-10-12T08:25:01.692Z,70.61
2018-10-12T08:27:31.710Z,69.34
2018-10-12T08:30:01.599Z,69.33
2018-10-12T08:32:31.553Z,69.18
2018-10-12T08:35:01.474Z,68.54
2018-10-12T08:37:31.464Z,69.27
2018-10-12T08:40:01.421Z,68.47
2018-10-12T08:42:31.227Z,67.76
2018-10-12T08:45:01.249Z,67.72
2018-10-12T08:47:31.324Z,67.67
2018-10-12T08:50:02.044Z,68.26
2018-10-12T08:52:31.904Z,66.25
2018-10-12T08:55:01.808Z,65.94
2018-10-12T08:57:31.873Z,67.34
2018-10-12T09:00:01.658Z,66.00
2018-10-12T09:02:37.145Z,65.66
2018-10-12T09:05:07.253Z,65.44
2018-10-12T09:07:37.169Z,64.42
2018-10-12T09:10:07.737Z,65.43
2018-10-12T09:12:37.982Z,65.23
2018-10-12T09:15:08.168Z,64.68
2018-10-12T09:17:38.274Z,64.98
2018-10-12T09:20:08.805Z,64.68
2018-10-12T09:22:38.943Z,64.26
2018-10-12T09:25:08.905Z,64.10
2018-10-12T09:27:39.010Z,62.84
2018-10-12T09:30:09.096Z,63.70
2018-10-12T09:32:39.188Z,62.91
2018-10-12T09:35:13.894Z,62.31
2018-10-12T09:37:44.119Z,62.42
2018-10-12T09:40:14.860Z,61.84
2018-10-12T09:42:44.983Z,62.85
2018-10-12T09:45:14.744Z,61.87
2018-10-12T09:47:44.507Z,62.08
2018-10-12T09:50:14.577Z,62.36
2018-10-12T09:52:44.491Z,61.63
2018-10-12T09:55:18.160Z,62.78
2018-10-12T09:57:47.981Z,61.92
2018-10-12T10:00:22.729Z,61.14
2018-10-12T10:02:57.510Z,61.06
2018-10-12T10:05:27.622Z,61.24
2018-10-12T10:07:59.101Z,61.40
2018-10-12T10:10:28.914Z,62.14
2018-10-12T10:12:58.645Z,61.98
2018-10-12T10:15:33.864Z,61.75
2018-10-12T10:18:05.018Z,61.83
2018-10-12T10:20:35.155Z,61.05
2018-10-12T10:23:05.272Z,61.03
2018-10-12T10:25:37.385Z,61.79
2018-10-12T10:28:07.868Z,62.11
2018-10-12T10:30:37.748Z,60.86
2018-10-12T10:33:08.005Z,61.11
2018-10-12T10:35:37.799Z,60.17
2018-10-12T10:38:08.029Z,59.63
2018-10-12T10:40:38.193Z,60.15
2018-10-12T10:43:08.414Z,60.50
2018-10-12T10:45:38.199Z,60.09
2018-10-12T10:48:07.952Z,59.93
2018-10-12T10:50:37.836Z,59.47
2018-10-12T10:53:07.843Z,58.97
2018-10-12T10:55:37.628Z,59.04
2018-10-12T10:58:07.823Z,59.65
2018-10-12T11:00:37.671Z,58.84
2018-10-12T11:03:12.571Z,58.05
2018-10-12T11:05:42.823Z,58.05
2018-10-12T11:08:12.979Z,57.43
2018-10-12T11:10:44.855Z,57.29
2018-10-12T11:13:14.753Z,56.24
2018-10-12T11:15:44.509Z,56.20
2018-10-12T11:18:14.444Z,56.13
2018-10-12T11:20:44.663Z,55.39
2018-10-12T11:23:14.353Z,56.52
2018-10-12T11:25:45.521Z,54.64
2018-10-12T11:28:15.692Z,56.23
2018-10-12T11:30:45.607Z,56.58
2018-10-12T11:33:15.757Z,54.04
2018-10-12T11:35:45.556Z,53.74
2018-10-12T11:38:15.273Z,54.92
2018-10-12T11:40:45.056Z,54.99
2018-10-12T11:43:29.959Z,55.07
2018-10-12T11:46:00.765Z,52.10
2018-10-12T11:48:30.651Z,53.73
2018-10-12T11:51:01.105Z,53.53
2018-10-12T11:53:30.943Z,52.16
2018-10-12T11:56:00.904Z,52.19
2018-10-12T11:58:30.827Z,51.62
2018-10-12T12:01:00.715Z,51.37
2018-10-12T12:03:30.592Z,52.30
2018-10-12T12:06:00.445Z,52.61
2018-10-12T12:08:30.512Z,50.43
2018-10-12T12:11:00.687Z,51.17
2018-10-12T12:13:30.865Z,50.98
2018-10-12T12:16:00.767Z,51.21
2018-10-12T12:18:30.664Z,51.13
2018-10-12T12:21:00.496Z,52.40
2018-10-12T12:23:30.264Z,51.99
2018-10-12T12:26:00.039Z,50.56
2018-10-12T12:28:29.804Z,51.73
2018-10-12T12:30:59.885Z,52.76
2018-10-12T12:33:29.874Z,51.75
2018-10-12T12:35:59.743Z,51.62
2018-10-12T12:38:29.871Z,51.17
2018-10-12T12:40:59.966Z,50.00
2018-10-12T12:43:29.683Z,49.87
2018-10-12T12:45:59.399Z,49.74
2018-10-12T12:48:29.593Z,50.34
2018-10-12T12:50:59.271Z,49.54
2018-10-12T12:53:29.320Z,50.19
2018-10-12T12:55:59.097Z,49.85
2018-10-12T12:58:29.168Z,49.21
2018-10-12T13:00:59.210Z,48.35
2018-10-12T13:03:29.197Z,49.05
2018-10-12T13:05:59.220Z,49.73
2018-10-12T13:08:29.322Z,49.15
2018-10-12T13:10:59.205Z,49.99
2018-10-12T13:13:29.270Z,48.41
2018-10-12T13:15:59.027Z,47.55
2018-10-12T13:18:28.856Z,47.88
2018-10-12T13:20:58.996Z,47.33
2018-10-12T13:23:29.307Z,47.41
2018-10-12T13:26:00.167Z,46.97
2018-10-12T13:28:30.465Z,47.09
2018-10-12T13:31:00.273Z,47.55
2018-10-12T13:33:30.088Z,47.86
2018-10-12T13:36:00.029Z,47.58
2018-10-12T13:38:29.844Z,46.43
2018-10-12T13:41:00.131Z,47.32
2018-10-12T13:43:30.193Z,47.33
2018-10-12T13:45:59.984Z,45.71
2018-10-12T13:48:29.872Z,46.45
2018-10-12T13:51:01.404Z,47.14
2018-10-12T13:53:31.195Z,47.04
2018-10-12T13:56:00.960Z,46.38
2018-10-12T13:58:30.682Z,45.04
2018-10-12T14:01:00.546Z,47.03
2018-10-12T14:03:30.298Z,46.28
2018-10-12T14:06:00.298Z,46.26
2018-10-12T14:08:30.055Z,46.22
2018-10-12T14:10:59.916Z,47.28
2018-10-12T14:13:29.795Z,46.63
2018-10-12T14:15:59.641Z,47.14
2018-10-12T14:18:29.499Z,46.18
2018-10-12T14:21:03.595Z,47.17
2018-10-12T14:23:33.486Z,47.66
2018-10-12T14:26:03.797Z,47.37
2018-10-12T14:28:34.060Z,48.04
2018-10-12T14:31:04.569Z,47.87
2018-10-12T14:33:34.478Z,46.45
2018-10-12T14:36:05.558Z,46.99
2018-10-12T14:38:35.791Z,47.86
2018-10-12T14:41:05.634Z,46.58
2018-10-12T14:46:37.741Z,48.19
2018-10-12T14:49:07.929Z,48.02
2018-10-12T14:51:37.938Z,47.75
2018-10-12T14:54:08.137Z,48.27
2018-10-12T14:56:37.982Z,48.44
2018-10-12T14:59:07.956Z,48.55
2018-10-12T15:01:37.667Z,47.54
2018-10-12T15:04:07.952Z,48.10
2018-10-12T15:06:37.836Z,49.57
2018-10-12T15:09:12.198Z,49.42
2018-10-12T15:11:42.780Z,49.34
2018-10-12T15:14:12.555Z,49.67
2018-10-12T15:16:43.342Z,49.57
2018-10-12T15:19:13.241Z,50.15
2018-10-12T15:21:43.070Z,49.54
2018-10-12T15:24:13.375Z,50.59
2018-10-12T15:26:44.165Z,50.75
2018-10-12T15:29:13.994Z,50.20
2018-10-12T15:31:43.943Z,50.76
2018-10-12T15:34:17.551Z,50.24
2018-10-12T15:36:47.904Z,50.60
2018-10-12T15:39:18.021Z,51.28
2018-10-12T15:41:48.849Z,50.90
2018-10-12T15:44:18.795Z,50.82
2018-10-12T15:46:50.013Z,51.59
2018-10-12T15:49:20.604Z,51.77
2018-10-12T15:51:56.015Z,51.04
2018-10-12T15:54:26.048Z,51.26
2018-10-12T15:56:55.938Z,52.51
2018-10-12T15:59:25.898Z,51.82
2018-10-12T16:01:56.978Z,51.91
2018-10-12T16:04:28.468Z,51.50
2018-10-12T16:06:59.035Z,52.20
2018-10-12T16:09:28.963Z,51.72
2018-10-12T16:11:59.504Z,51.33
2018-10-12T16:14:30.542Z,52.05
2018-10-12T16:17:00.446Z,52.78
2018-10-12T16:19:30.232Z,52.42
2018-10-12T16:21:59.956Z,52.66
2018-10-12T16:24:29.746Z,52.99
2018-10-12T16:26:59.941Z,52.89
2018-10-12T16:29:29.857Z,53.00
2018-10-12T16:32:00.060Z,52.79
2018-10-12T16:34:29.992Z,53.88
2018-10-12T16:37:00.095Z,52.43
2018-10-12T16:39:31.732Z,53.64
2018-10-12T16:42:01.649Z,53.71
2018-10-12T16:44:32.180Z,53.34
2018-10-12T16:47:02.356Z,54.38
2018-10-12T16:49:32.079Z,54.82
2018-10-12T16:52:01.819Z,53.28
2018-10-12T16:54:31.620Z,53.41
2018-10-12T16:57:01.536Z,54.90
2018-10-12T16:59:31.602Z,54.51
2018-10-12T17:02:01.408Z,54.99
2018-10-12T17:04:31.307Z,54.59
2018-10-12T17:07:01.232Z,54.34
2018-10-12T17:09:31.351Z,54.73
2018-10-12T17:12:01.169Z,55.35
2018-10-12T17:14:31.278Z,55.04
2018-10-12T17:17:01.432Z,56.23
2018-10-12T17:19:31.224Z,55.82
2018-10-12T17:22:02.197Z,56.68
2018-10-12T17:24:32.538Z,56.04
2018-10-12T17:27:02.711Z,55.64
2018-10-12T17:29:32.505Z,56.14
2018-10-12T17:32:02.330Z,56.47
2018-10-12T17:34:32.798Z,56.90
2018-10-12T17:37:02.517Z,56.63
2018-10-12T17:39:32.882Z,56.19
2018-10-12T17:42:15.531Z,56.22
2018-10-12T17:44:45.892Z,56.04
2018-10-12T17:47:16.562Z,57.53
2018-10-12T17:49:46.459Z,57.50
2018-10-12T17:52:16.351Z,58.00
2018-10-12T17:54:46.653Z,57.03
2018-10-12T17:57:16.878Z,56.65
2018-10-12T17:59:47.143Z,56.76
2018-10-12T18:02:17.398Z,57.62
2018-10-12T18:04:47.620Z,57.70
2018-10-12T18:07:17.507Z,57.39
2018-10-12T18:09:47.676Z,57.68
2018-10-12T18:12:18.469Z,57.43
2018-10-12T18:14:49.403Z,57.47
2018-10-12T18:17:19.391Z,58.46
2018-10-12T18:20:00.307Z,57.88
2018-10-12T18:35:59.479Z,58.76
2018-10-12T18:38:29.499Z,59.01
2018-10-12T18:41:00.303Z,59.29
2018-10-12T18:43:30.688Z,59.42
2018-10-12T18:46:00.497Z,58.76
2018-10-12T18:48:32.512Z,59.32
2018-10-12T18:51:02.380Z,59.53
2018-10-12T18:53:32.207Z,58.91
2018-10-12T18:56:01.932Z,60.00
2018-10-12T18:58:32.027Z,60.13
2018-10-12T19:01:01.853Z,59.39
2018-10-12T19:03:31.595Z,59.85
2018-10-12T19:06:01.593Z,60.08
2018-10-12T19:08:31.992Z,60.78
2018-10-12T19:11:01.884Z,59.81
2018-10-12T19:13:31.738Z,59.83
2018-10-12T19:16:01.605Z,61.02
2018-10-12T19:18:31.567Z,60.25
2018-10-12T19:21:01.550Z,60.01
2018-10-12T19:23:35.273Z,61.03
2018-10-12T19:26:07.120Z,60.16
2018-10-12T19:28:37.187Z,60.83
2018-10-12T19:31:08.444Z,61.37
2018-10-12T19:33:39.561Z,61.00
2018-10-12T19:36:09.632Z,60.95
2018-10-12T19:38:39.692Z,61.35
2018-10-12T19:41:09.468Z,60.63
2018-10-12T19:43:39.344Z,60.74
2018-10-12T19:46:10.361Z,61.42
2018-10-12T19:48:40.584Z,61.74
2018-10-12T19:51:10.359Z,60.75
2018-10-12T19:53:40.104Z,61.00
2018-10-12T19:56:10.214Z,61.88
2018-10-12T19:58:41.515Z,60.85
2018-10-12T20:01:11.473Z,61.48
2018-10-12T20:03:41.540Z,60.81
2018-10-12T20:06:11.885Z,61.18
2018-10-12T20:08:41.763Z,60.75
2018-10-12T20:11:11.733Z,62.20
2018-10-12T20:13:41.495Z,62.16
2018-10-12T20:16:11.421Z,62.32
2018-10-12T20:18:41.403Z,61.90
2018-10-12T20:21:11.303Z,62.06
2018-10-12T20:23:41.220Z,61.77
2018-10-12T20:26:10.990Z,62.15
2018-10-12T20:28:41.034Z,62.87
2018-10-12T20:31:11.211Z,61.79
2018-10-12T20:33:41.206Z,62.11
2018-10-12T20:36:11.453Z,61.84
2018-10-12T20:38:41.253Z,62.81
2018-10-12T20:41:13.143Z,62.54
2018-10-12T20:43:43.039Z,61.95
2018-10-12T20:46:13.926Z,62.03
2018-10-12T20:48:43.943Z,61.82
2018-10-12T20:51:13.871Z,61.73
2018-10-12T20:53:44.037Z,61.75
2018-10-12T20:56:13.838Z,62.32
2018-10-12T20:58:44.000Z,61.97
2018-10-12T21:01:13.771Z,62.24
2018-10-12T21:03:43.926Z,61.82
2018-10-12T21:06:13.659Z,62.94
2018-10-12T21:08:43.910Z,61.73
2018-10-12T21:11:13.686Z,61.35
2018-10-12T21:13:43.965Z,62.72
2018-10-12T21:16:13.926Z,62.15
2018-10-12T21:18:43.786Z,62.34
2018-10-12T21:21:13.882Z,61.85
2018-10-12T21:23:43.880Z,62.03
2018-10-12T21:26:13.696Z,61.59
2018-10-12T21:28:43.600Z,62.62
2018-10-12T21:31:13.419Z,62.33
2018-10-12T21:33:43.996Z,61.88
2018-10-12T21:36:14.327Z,62.68
2018-10-12T21:39:01.480Z,62.93
2018-10-12T21:41:31.242Z,62.38
2018-10-12T21:44:03.060Z,62.45
2018-10-12T21:46:32.852Z,62.53
2018-10-12T21:49:02.954Z,61.87
2018-10-12T21:51:32.742Z,62.58
2018-10-12T21:54:08.090Z,61.54
2018-10-12T21:56:37.892Z,61.91
2018-10-12T21:59:07.718Z,61.47
2018-10-12T22:01:37.887Z,61.66
2018-10-12T22:04:07.905Z,62.35
2018-10-12T22:06:37.759Z,61.94
2018-10-12T22:09:09.536Z,61.43
2018-10-12T22:11:39.423Z,62.35
2018-10-12T22:14:09.456Z,61.49
2018-10-12T22:16:39.408Z,61.38
2018-10-12T22:19:09.337Z,61.97
2018-10-12T22:21:39.328Z,61.37
2018-10-12T22:24:09.055Z,62.12
2018-10-12T22:26:39.123Z,61.92
2018-10-12T22:29:14.323Z,61.84
2018-10-12T22:31:44.199Z,61.45
2018-10-12T22:34:13.968Z,61.88
2018-10-12T22:36:43.754Z,61.65
2018-10-12T22:39:13.726Z,61.78
2018-10-12T22:41:43.600Z,61.73
2018-10-12T22:44:13.470Z,62.28
2018-10-12T22:46:43.266Z,63.16
2018-10-12T22:49:13.245Z,61.67
2018-10-12T22:51:43.212Z,62.12
2018-10-12T22:54:12.995Z,62.04
2018-10-12T22:56:42.796Z,61.71
2018-10-12T22:59:12.757Z,61.66
2018-10-12T23:01:42.608Z,61.82
2018-10-12T23:04:13.030Z,62.02
2018-10-12T23:06:42.915Z,62.21
2018-10-12T23:09:12.749Z,62.38
2018-10-12T23:11:43.314Z,62.51
2018-10-12T23:14:13.220Z,63.48
2018-10-12T23:16:43.366Z,62.76
2018-10-12T23:19:13.219Z,64.24
2018-10-12T23:21:43.015Z,64.86
2018-10-12T23:24:13.187Z,63.03
2018-10-12T23:26:43.374Z,62.85
2018-10-12T23:29:13.222Z,62.53
2018-10-12T23:31:43.586Z,63.72
2018-10-12T23:34:13.492Z,63.47
2018-10-12T23:36:44.024Z,64.28
2018-10-12T23:39:13.859Z,63.78
2018-10-12T23:41:43.986Z,63.23
2018-10-12T23:44:13.808Z,62.42
2018-10-12T23:46:43.660Z,63.31
2018-10-12T23:49:13.462Z,63.07
2018-10-12T23:51:43.485Z,63.68
2018-10-12T23:54:13.427Z,62.73
2018-10-12T23:56:43.328Z,63.25
2018-10-12T23:59:13.532Z,63.12
